Weather at Salt Cay Airport

Public forecast

Using degrees Celsius for public forecast. Weather courtesy of forecast.io.

Closest aviation weather report (METAR) to Salt Cay Airport

Report is more than 6 hours old.

Closest report is JAGS McCartney International Airport, 7.4 nm (13.8 km) NNE. Retrieved 2022/01/14 02:00 UTC (2 days ago):

MBGT 140200Z 23010KT 9999 SCT015TCU SCT050 26/20 Q1011

Closest aviation forecast (TAF) to Salt Cay Airport

Forecast is more than 12 hours old.

Closest forecast is JAGS McCartney International Airport, 7.4 nm (13.8 km) NNE. Retrieved 2021-06-15 00:39 UTC (7 months ago):

TAF MBGT 142310Z 1500/1524 12008KT 9999 SCT018 SCT200 BECMG 1515/1517 10014KT